createdAt,value
2023-05-11T00:00:40.607Z,11.76
2023-05-11T00:03:07.964Z,11.73
2023-05-11T00:05:35.479Z,11.71
2023-05-11T00:08:02.908Z,11.66
2023-05-11T00:10:30.692Z,11.64
2023-05-11T00:12:58.282Z,11.54
2023-05-11T00:15:25.835Z,11.52
2023-05-11T00:17:53.210Z,11.53
2023-05-11T00:20:21.903Z,11.49
2023-05-11T00:22:49.519Z,11.47
2023-05-11T00:25:16.950Z,11.48
2023-05-11T00:27:46.279Z,11.44
2023-05-11T00:30:17.323Z,11.40
2023-05-11T00:32:45.662Z,11.38
2023-05-11T00:35:13.153Z,11.31
2023-05-11T00:37:41.470Z,11.29
2023-05-11T00:40:09.195Z,11.25
2023-05-11T00:42:36.574Z,11.27
2023-05-11T00:45:04.420Z,11.22
2023-05-11T00:47:32.151Z,11.20
2023-05-11T00:49:59.699Z,11.18
2023-05-11T00:52:27.696Z,11.15
2023-05-11T00:54:55.019Z,11.17
2023-05-11T00:57:22.378Z,11.18
2023-05-11T00:59:49.833Z,11.14
2023-05-11T01:02:18.025Z,11.12
2023-05-11T01:04:45.879Z,11.11
2023-05-11T01:07:16.343Z,11.08
2023-05-11T01:10:04.089Z,11.06
2023-05-11T01:12:50.893Z,11.02
2023-05-11T01:15:41.547Z,10.98
2023-05-11T01:18:38.304Z,10.95
2023-05-11T01:21:14.469Z,10.93
2023-05-11T01:24:12.985Z,10.86
2023-05-11T01:26:55.312Z,10.85
2023-05-11T01:29:44.092Z,10.80
2023-05-11T01:32:31.363Z,10.77
2023-05-11T01:35:06.535Z,10.80
2023-05-11T01:37:35.201Z,10.78
2023-05-11T01:40:10.938Z,10.75
2023-05-11T01:42:55.110Z,10.74
2023-05-11T01:45:24.730Z,10.72
2023-05-11T01:47:53.628Z,10.64
2023-05-11T01:50:24.740Z,10.57
2023-05-11T01:52:53.791Z,10.61
2023-05-11T01:55:24.033Z,10.60
2023-05-11T01:57:54.794Z,10.60
2023-05-11T02:00:23.759Z,10.61
2023-05-11T02:02:56.051Z,10.60
2023-05-11T02:05:24.934Z,10.56
2023-05-11T02:07:54.685Z,10.54
2023-05-11T02:10:25.644Z,10.50
2023-05-11T02:12:54.203Z,10.47
2023-05-11T02:15:24.234Z,10.48
2023-05-11T02:17:54.429Z,10.47
2023-05-11T02:20:22.607Z,10.42
2023-05-11T02:22:50.901Z,10.44
2023-05-11T02:25:18.860Z,10.40
2023-05-11T02:27:47.130Z,10.37
2023-05-11T02:30:14.817Z,10.34
2023-05-11T02:32:51.751Z,10.34
2023-05-11T02:35:46.191Z,10.31
2023-05-11T02:38:15.611Z,10.26
2023-05-11T02:40:47.593Z,10.25
2023-05-11T02:43:24.894Z,10.29
2023-05-11T02:46:02.715Z,10.25
2023-05-11T02:48:37.897Z,10.19
2023-05-11T02:51:07.892Z,10.15
2023-05-11T02:53:43.176Z,10.16
2023-05-11T02:56:10.849Z,10.08
2023-05-11T02:58:38.495Z,10.07
2023-05-11T03:01:15.741Z,10.11
2023-05-11T03:03:43.387Z,10.09
2023-05-11T03:06:10.910Z,10.04
2023-05-11T03:08:38.535Z,10.10
2023-05-11T03:11:06.626Z,10.08
2023-05-11T03:13:34.886Z,10.08
2023-05-11T03:16:06.249Z,10.05
2023-05-11T03:18:35.323Z,10.02
2023-05-11T03:21:03.163Z,10.10
2023-05-11T03:23:31.896Z,10.08
2023-05-11T03:26:00.516Z,10.04
2023-05-11T03:28:30.115Z,9.99
2023-05-11T03:31:07.299Z,10.04
2023-05-11T03:33:34.871Z,10.04
2023-05-11T03:36:04.742Z,10.07
2023-05-11T03:38:36.281Z,10.07
2023-05-11T03:41:03.726Z,10.07
2023-05-11T03:43:36.339Z,10.06
2023-05-11T03:46:05.472Z,10.08
2023-05-11T03:48:33.552Z,10.07
2023-05-11T03:51:01.268Z,10.07
2023-05-11T03:53:28.768Z,10.06
2023-05-11T03:55:56.363Z,10.11
2023-05-11T03:58:24.086Z,10.12
2023-05-11T04:00:51.964Z,10.17
2023-05-11T04:03:19.500Z,10.18
2023-05-11T04:05:47.147Z,10.24
2023-05-11T04:08:14.810Z,10.28
2023-05-11T04:10:42.286Z,10.35
2023-05-11T04:13:09.519Z,10.44
2023-05-11T04:15:37.891Z,10.47
2023-05-11T04:18:05.332Z,10.46
2023-05-11T04:20:32.694Z,10.48
2023-05-11T04:22:59.951Z,10.55
2023-05-11T04:25:27.702Z,10.61
2023-05-11T04:27:55.107Z,10.63
2023-05-11T04:30:22.701Z,10.73
2023-05-11T04:32:50.022Z,10.77
2023-05-11T04:35:17.489Z,10.82
2023-05-11T04:37:44.827Z,10.84
2023-05-11T04:40:13.264Z,10.84
2023-05-11T04:42:42.348Z,10.89
2023-05-11T04:45:15.258Z,10.93
2023-05-11T04:47:43.379Z,11.01
2023-05-11T04:50:11.592Z,11.07
2023-05-11T04:52:38.805Z,11.08
2023-05-11T04:55:06.542Z,11.09
2023-05-11T04:57:34.909Z,11.14
2023-05-11T05:00:04.229Z,11.17
2023-05-11T05:02:32.792Z,11.20
2023-05-11T05:05:00.976Z,11.23
2023-05-11T05:07:28.279Z,11.26
2023-05-11T05:09:56.638Z,11.32
2023-05-11T05:12:24.243Z,11.36
2023-05-11T05:14:51.821Z,11.40
2023-05-11T05:17:19.297Z,11.45
2023-05-11T05:19:46.676Z,11.50
2023-05-11T05:22:14.128Z,11.56
2023-05-11T05:24:41.587Z,11.61
2023-05-11T05:27:09.519Z,11.66
2023-05-11T05:29:36.906Z,11.76
2023-05-11T05:32:04.567Z,11.80
2023-05-11T05:34:31.919Z,11.87
2023-05-11T05:36:59.243Z,11.87
2023-05-11T05:39:27.521Z,11.99
2023-05-11T05:41:54.925Z,12.06
2023-05-11T05:44:23.005Z,12.15
2023-05-11T05:46:50.918Z,12.24
2023-05-11T05:49:18.288Z,12.30
2023-05-11T05:51:45.701Z,12.38
2023-05-11T05:54:13.670Z,12.46
2023-05-11T05:56:41.087Z,12.59
2023-05-11T05:59:10.184Z,12.72
2023-05-11T06:01:41.669Z,12.80
2023-05-11T06:04:09.137Z,12.91
2023-05-11T06:06:36.691Z,12.98
2023-05-11T06:09:04.098Z,13.07
2023-05-11T06:11:31.412Z,13.18
2023-05-11T06:13:59.185Z,13.34
2023-05-11T06:16:28.114Z,13.50
2023-05-11T06:18:55.531Z,13.64
2023-05-11T06:21:23.091Z,13.84
2023-05-11T06:23:50.535Z,13.92
2023-05-11T06:26:17.957Z,14.09
2023-05-11T06:28:45.429Z,14.31
2023-05-11T06:31:15.841Z,14.51
2023-05-11T06:33:44.354Z,14.72
2023-05-11T06:36:20.217Z,14.87
2023-05-11T06:38:47.550Z,15.01
2023-05-11T06:41:15.014Z,15.11
2023-05-11T06:43:42.506Z,15.22
2023-05-11T06:46:22.387Z,15.37
2023-05-11T06:48:50.621Z,15.63
2023-05-11T06:51:18.860Z,15.84
2023-05-11T06:53:46.144Z,16.03
2023-05-11T06:56:13.431Z,16.18
2023-05-11T06:58:42.616Z,16.32
2023-05-11T07:01:11.356Z,16.38
2023-05-11T07:03:38.755Z,16.53
2023-05-11T07:06:06.283Z,16.61
2023-05-11T07:08:34.212Z,16.69
2023-05-11T07:11:01.750Z,16.80
2023-05-11T07:13:29.120Z,17.01
2023-05-11T07:15:57.795Z,17.20
2023-05-11T07:18:25.218Z,17.40
2023-05-11T07:20:52.620Z,17.54
2023-05-11T07:23:20.028Z,17.63
2023-05-11T07:25:47.257Z,17.75
2023-05-11T07:28:14.948Z,17.84
2023-05-11T07:30:42.212Z,17.91
2023-05-11T07:33:09.772Z,18.12
2023-05-11T07:35:37.101Z,18.32
2023-05-11T07:38:06.357Z,18.42
2023-05-11T07:40:34.098Z,18.40
2023-05-11T07:43:02.093Z,18.42
2023-05-11T07:45:29.332Z,18.29
2023-05-11T07:47:56.513Z,18.25
2023-05-11T07:50:24.544Z,18.26
2023-05-11T07:52:52.399Z,18.25
2023-05-11T07:55:20.751Z,18.28
2023-05-11T07:57:48.305Z,18.32
2023-05-11T08:00:16.311Z,18.36
2023-05-11T08:02:44.269Z,18.49
2023-05-11T08:05:11.827Z,18.56
2023-05-11T08:07:41.536Z,18.71
2023-05-11T08:10:09.691Z,18.82
2023-05-11T08:12:37.511Z,18.88
2023-05-11T08:15:06.182Z,19.09
2023-05-11T08:17:33.672Z,19.26
2023-05-11T08:20:00.966Z,19.27
2023-05-11T08:22:28.469Z,19.23
2023-05-11T08:24:55.735Z,19.31
2023-05-11T08:27:23.215Z,19.37
2023-05-11T08:29:51.639Z,19.41
2023-05-11T08:32:19.221Z,19.40
2023-05-11T08:34:47.023Z,19.33
2023-05-11T08:37:14.579Z,19.28
2023-05-11T08:39:46.639Z,19.33
2023-05-11T08:42:17.914Z,19.51
2023-05-11T08:44:45.117Z,19.65
2023-05-11T08:49:43.787Z,19.84
2023-05-11T08:52:12.969Z,19.78
2023-05-11T08:54:40.352Z,19.89
2023-05-11T08:57:08.981Z,19.91
2023-05-11T08:59:36.801Z,19.94
2023-05-11T09:02:06.207Z,19.95
2023-05-11T09:04:34.688Z,19.92
2023-05-11T09:07:02.557Z,20.02
2023-05-11T09:09:29.872Z,20.06
2023-05-11T09:11:57.736Z,20.12
2023-05-11T09:14:27.614Z,20.15
2023-05-11T09:16:55.268Z,20.24
2023-05-11T09:19:22.621Z,20.34
2023-05-11T09:21:52.406Z,20.36
2023-05-11T09:24:21.479Z,20.33
2023-05-11T09:26:49.683Z,20.33
2023-05-11T09:29:20.860Z,20.39
2023-05-11T09:31:48.767Z,20.56
2023-05-11T09:34:20.603Z,20.60
2023-05-11T09:36:53.424Z,20.68
2023-05-11T09:39:41.664Z,20.71
2023-05-11T09:42:18.317Z,20.63
2023-05-11T09:44:47.119Z,20.51
2023-05-11T09:47:17.811Z,20.60
2023-05-11T09:49:46.073Z,20.66
2023-05-11T09:52:15.947Z,20.58
2023-05-11T09:54:45.359Z,20.69
2023-05-11T09:57:30.840Z,20.93
2023-05-11T09:59:59.991Z,21.06
2023-05-11T10:02:30.019Z,21.02
2023-05-11T10:05:01.358Z,21.05
2023-05-11T10:07:34.162Z,20.98
2023-05-11T10:10:06.494Z,21.06
2023-05-11T10:12:38.430Z,21.08
2023-05-11T10:15:08.450Z,21.11
2023-05-11T10:17:37.161Z,21.28
2023-05-11T10:20:06.844Z,21.33
2023-05-11T10:22:34.400Z,21.32
2023-05-11T10:25:03.248Z,21.22
2023-05-11T10:27:32.265Z,21.21
2023-05-11T10:30:00.173Z,21.20
2023-05-11T10:32:28.810Z,21.30
2023-05-11T10:34:57.130Z,21.34
2023-05-11T10:37:25.693Z,21.24
2023-05-11T10:39:53.030Z,21.35
2023-05-11T10:42:56.812Z,21.32
2023-05-11T10:45:48.937Z,21.33
2023-05-11T10:48:36.993Z,21.33
2023-05-11T10:51:14.171Z,21.41
2023-05-11T10:53:54.888Z,21.50
2023-05-11T10:56:53.271Z,21.51
2023-05-11T11:00:07.563Z,21.64
2023-05-11T11:02:35.265Z,21.78
2023-05-11T11:05:06.107Z,21.71
2023-05-11T11:07:59.275Z,21.63
2023-05-11T11:10:51.900Z,21.52
2023-05-11T11:13:20.460Z,21.56
2023-05-11T11:15:56.409Z,21.60
2023-05-11T11:18:28.314Z,21.46
2023-05-11T11:20:57.932Z,21.35
2023-05-11T11:23:40.644Z,21.44
2023-05-11T11:26:10.251Z,21.42
2023-05-11T11:29:00.915Z,21.43
2023-05-11T11:31:32.643Z,21.43
2023-05-11T11:34:40.469Z,21.36
2023-05-11T11:37:09.157Z,21.34
2023-05-11T11:39:51.469Z,21.33
2023-05-11T11:42:40.174Z,21.46
2023-05-11T11:45:28.574Z,21.69
2023-05-11T11:48:15.943Z,21.72
2023-05-11T11:50:48.343Z,21.71
2023-05-11T11:53:43.997Z,21.57
2023-05-11T11:56:17.392Z,21.52
2023-05-11T11:58:44.825Z,21.59
2023-05-11T12:01:21.643Z,21.62
2023-05-11T12:04:04.742Z,21.60
2023-05-11T12:06:40.193Z,21.55
2023-05-11T12:09:08.890Z,21.54
2023-05-11T12:11:37.845Z,21.50
2023-05-11T12:14:05.343Z,21.53
2023-05-11T12:16:32.861Z,21.61
2023-05-11T12:19:02.169Z,21.59
2023-05-11T12:21:34.181Z,21.50
2023-05-11T12:24:03.294Z,21.52
2023-05-11T12:26:32.325Z,21.58
2023-05-11T12:29:14.147Z,21.56
2023-05-11T12:31:43.130Z,21.53
2023-05-11T12:34:17.599Z,21.49
2023-05-11T12:36:48.720Z,21.49
2023-05-11T12:39:27.456Z,21.45
2023-05-11T12:41:56.675Z,21.43
2023-05-11T12:44:26.308Z,21.39
2023-05-11T12:46:54.441Z,21.38
2023-05-11T12:49:26.418Z,21.36
2023-05-11T12:52:01.501Z,21.34
2023-05-11T12:54:34.145Z,21.30
2023-05-11T12:57:03.127Z,21.30
2023-05-11T12:59:41.146Z,21.32
2023-05-11T13:02:10.061Z,21.36
2023-05-11T13:04:38.942Z,21.36
2023-05-11T13:07:06.449Z,21.37
2023-05-11T13:09:34.053Z,21.27
2023-05-11T13:12:11.129Z,21.21
2023-05-11T13:14:39.617Z,21.13
2023-05-11T13:17:07.071Z,21.11
2023-05-11T13:19:35.071Z,21.01
2023-05-11T13:22:02.360Z,21.02
2023-05-11T13:24:29.837Z,20.94
2023-05-11T13:26:58.977Z,20.95
2023-05-11T13:29:27.312Z,20.91
2023-05-11T13:31:54.941Z,20.92
2023-05-11T13:34:22.600Z,20.91
2023-05-11T13:36:50.560Z,20.88
2023-05-11T13:39:18.048Z,20.84
2023-05-11T13:41:46.196Z,20.83
2023-05-11T13:44:13.746Z,20.74
2023-05-11T13:46:41.200Z,20.74
2023-05-11T13:49:08.808Z,20.67
2023-05-11T13:51:36.361Z,20.64
2023-05-11T13:54:04.080Z,20.63
2023-05-11T13:56:31.954Z,20.55
2023-05-11T13:59:00.135Z,20.48
2023-05-11T14:01:27.958Z,20.36
2023-05-11T14:03:56.756Z,20.36
2023-05-11T14:06:25.739Z,20.40
2023-05-11T14:08:53.913Z,20.47
2023-05-11T14:11:21.770Z,20.44
2023-05-11T14:13:49.407Z,20.37
2023-05-11T14:16:17.015Z,20.33
2023-05-11T14:18:44.731Z,20.27
2023-05-11T14:21:12.471Z,20.28
2023-05-11T14:23:44.977Z,20.28
2023-05-11T14:26:17.627Z,20.24
2023-05-11T14:28:45.154Z,20.26
2023-05-11T14:31:12.965Z,20.26
2023-05-11T14:33:40.443Z,20.22
2023-05-11T14:36:09.272Z,20.16
2023-05-11T14:38:36.790Z,20.15
2023-05-11T14:41:04.097Z,20.13
2023-05-11T14:43:31.686Z,20.08
2023-05-11T14:45:59.151Z,20.03
2023-05-11T14:48:26.498Z,20.01
2023-05-11T14:50:53.926Z,19.97
2023-05-11T14:53:21.278Z,19.95
2023-05-11T14:55:48.808Z,19.90
2023-05-11T14:58:16.178Z,19.86
2023-05-11T15:00:44.053Z,19.84
2023-05-11T15:03:11.467Z,19.79
2023-05-11T15:05:39.454Z,19.75
2023-05-11T15:08:15.507Z,19.74
2023-05-11T15:10:49.835Z,19.74
2023-05-11T15:13:17.080Z,19.76
2023-05-11T15:15:45.296Z,19.75
2023-05-11T15:18:14.471Z,19.76
2023-05-11T15:20:42.733Z,19.75
2023-05-11T15:23:10.490Z,19.80
2023-05-11T15:25:37.917Z,19.77
2023-05-11T15:28:06.490Z,19.78
2023-05-11T15:30:33.827Z,19.74
2023-05-11T15:33:01.324Z,19.69
2023-05-11T15:35:28.637Z,19.63
2023-05-11T15:37:56.298Z,19.62
2023-05-11T15:40:24.640Z,19.58
2023-05-11T15:42:51.803Z,19.56
2023-05-11T15:45:19.342Z,19.53
2023-05-11T15:47:46.965Z,19.52
2023-05-11T15:50:14.635Z,19.52
2023-05-11T15:52:42.094Z,19.51
2023-05-11T15:55:09.516Z,19.42
2023-05-11T15:57:37.220Z,19.41
2023-05-11T16:00:05.093Z,19.40
2023-05-11T16:02:35.145Z,19.36
2023-05-11T16:05:02.903Z,19.27
2023-05-11T16:07:30.626Z,19.20
2023-05-11T16:09:58.644Z,19.19
2023-05-11T16:12:26.861Z,19.11
2023-05-11T16:14:54.944Z,19.12
2023-05-11T16:17:22.702Z,19.11
2023-05-11T16:19:50.435Z,19.08
2023-05-11T16:22:18.742Z,19.06
2023-05-11T16:24:46.857Z,19.03
2023-05-11T16:27:14.576Z,19.01
2023-05-11T16:29:42.778Z,19.00
2023-05-11T16:32:10.700Z,18.94
2023-05-11T16:34:41.367Z,18.88
2023-05-11T16:37:10.308Z,18.92
2023-05-11T16:39:37.676Z,18.85
2023-05-11T16:42:05.130Z,18.89
2023-05-11T16:44:32.462Z,18.85
2023-05-11T16:47:00.674Z,18.84
2023-05-11T16:49:28.547Z,18.80
2023-05-11T16:51:55.997Z,18.74
2023-05-11T16:54:23.457Z,18.71
2023-05-11T16:56:51.077Z,18.63
2023-05-11T16:59:18.550Z,18.64
2023-05-11T17:01:46.495Z,18.58
2023-05-11T17:04:14.141Z,18.58
2023-05-11T17:06:42.067Z,18.52
2023-05-11T17:09:09.637Z,18.50
2023-05-11T17:11:37.390Z,18.48
2023-05-11T17:14:05.032Z,18.45
2023-05-11T17:16:32.518Z,18.43
2023-05-11T17:19:00.110Z,18.39
2023-05-11T17:21:28.916Z,18.34
2023-05-11T17:23:56.364Z,18.30
2023-05-11T17:26:27.506Z,18.27
2023-05-11T17:29:00.413Z,18.21
2023-05-11T17:31:27.883Z,18.17
2023-05-11T17:33:55.625Z,18.10
2023-05-11T17:36:22.975Z,18.09
2023-05-11T17:38:51.519Z,18.02
2023-05-11T17:41:19.033Z,18.01
2023-05-11T17:43:47.946Z,17.96
2023-05-11T17:46:16.373Z,17.92
2023-05-11T17:48:43.882Z,17.90
2023-05-11T17:51:11.167Z,17.82
2023-05-11T17:53:38.556Z,17.79
2023-05-11T17:56:08.268Z,17.75
2023-05-11T17:58:35.748Z,17.68
2023-05-11T18:01:11.397Z,17.64
2023-05-11T18:03:39.624Z,17.57
2023-05-11T18:06:08.315Z,17.46
2023-05-11T18:08:40.629Z,17.45
2023-05-11T18:11:10.538Z,17.42
2023-05-11T18:13:38.378Z,17.34
2023-05-11T18:16:06.840Z,17.26
2023-05-11T18:18:35.017Z,17.23
2023-05-11T18:21:07.033Z,17.17
2023-05-11T18:23:35.021Z,17.06
2023-05-11T18:26:02.769Z,17.05
2023-05-11T18:28:30.960Z,17.00
2023-05-11T18:30:58.796Z,16.89
2023-05-11T18:33:27.061Z,16.88
2023-05-11T18:35:55.535Z,16.81
2023-05-11T18:38:23.612Z,16.75
2023-05-11T18:40:51.855Z,16.71
2023-05-11T18:43:19.851Z,16.65
2023-05-11T18:45:48.071Z,16.59
2023-05-11T18:48:16.158Z,16.55
2023-05-11T18:50:44.083Z,16.50
2023-05-11T18:53:11.811Z,16.45
2023-05-11T18:55:51.998Z,16.38
2023-05-11T18:58:21.511Z,16.32
2023-05-11T19:00:50.114Z,16.28
2023-05-11T19:03:20.115Z,16.18
2023-05-11T19:05:49.704Z,16.18
2023-05-11T19:08:17.675Z,16.13
2023-05-11T19:10:47.456Z,16.08
2023-05-11T19:13:15.265Z,16.03
2023-05-11T19:15:44.356Z,15.94
2023-05-11T19:18:12.480Z,15.94
2023-05-11T19:20:40.336Z,15.88
2023-05-11T19:23:08.470Z,15.85
2023-05-11T19:25:36.660Z,15.81
2023-05-11T19:28:04.505Z,15.79
2023-05-11T19:30:32.695Z,15.72
2023-05-11T19:33:01.077Z,15.70
2023-05-11T19:35:28.709Z,15.68
2023-05-11T19:37:56.418Z,15.65
2023-05-11T19:42:56.094Z,15.59
2023-05-11T19:45:24.438Z,15.51
2023-05-11T19:47:52.272Z,15.47
2023-05-11T19:50:23.526Z,15.44
2023-05-11T19:52:53.269Z,15.41
2023-05-11T19:55:22.021Z,15.37
2023-05-11T19:57:50.053Z,15.34
2023-05-11T20:00:25.344Z,15.25
2023-05-11T20:02:54.506Z,15.26
2023-05-11T20:05:22.626Z,15.24
2023-05-11T20:07:50.783Z,15.20
2023-05-11T20:10:18.979Z,15.14
2023-05-11T20:12:47.095Z,15.13
2023-05-11T20:15:15.526Z,15.10
2023-05-11T20:17:43.589Z,15.04
2023-05-11T20:20:12.681Z,15.01
2023-05-11T20:22:40.877Z,14.96
2023-05-11T20:25:17.538Z,14.90
2023-05-11T20:27:47.208Z,14.87
2023-05-11T20:30:16.169Z,14.84
2023-05-11T20:35:15.848Z,14.78
2023-05-11T20:37:44.156Z,14.76
2023-05-11T20:40:12.471Z,14.71
2023-05-11T20:42:40.825Z,14.71
2023-05-11T20:45:09.097Z,14.68
2023-05-11T20:47:37.650Z,14.61
2023-05-11T20:50:06.886Z,14.56
2023-05-11T20:52:34.754Z,14.52
2023-05-11T20:55:02.855Z,14.46
2023-05-11T20:57:30.866Z,14.42
2023-05-11T21:02:30.140Z,14.40
2023-05-11T21:05:02.736Z,14.34
2023-05-11T21:07:31.063Z,14.37
2023-05-11T21:09:58.763Z,14.32
2023-05-11T21:12:26.932Z,14.35
2023-05-11T21:14:56.859Z,14.27
2023-05-11T21:17:25.317Z,14.30
2023-05-11T21:19:53.455Z,14.25
2023-05-11T21:22:22.028Z,14.23
2023-05-11T21:24:50.091Z,14.21
2023-05-11T21:27:17.865Z,14.18
2023-05-11T21:29:46.408Z,14.19
2023-05-11T21:32:14.506Z,14.15
2023-05-11T21:34:42.757Z,14.09
2023-05-11T21:37:10.608Z,14.07
2023-05-11T21:39:38.265Z,14.04
2023-05-11T21:42:06.918Z,14.05
2023-05-11T21:44:35.020Z,14.04
2023-05-11T21:47:03.616Z,13.99
2023-05-11T21:49:33.348Z,13.97
2023-05-11T21:52:01.039Z,13.95
2023-05-11T21:54:29.059Z,13.93
2023-05-11T21:56:56.800Z,13.87
2023-05-11T21:59:27.075Z,13.89
2023-05-11T22:01:57.692Z,13.87
2023-05-11T22:04:27.642Z,13.85
2023-05-11T22:07:01.075Z,13.74
2023-05-11T22:09:30.243Z,13.77
2023-05-11T22:11:58.464Z,13.75
2023-05-11T22:14:26.405Z,13.69
2023-05-11T22:16:53.769Z,13.67
2023-05-11T22:19:21.230Z,13.66
2023-05-11T22:21:50.292Z,13.63
2023-05-11T22:24:17.587Z,13.62
2023-05-11T22:26:45.044Z,13.61
2023-05-11T22:29:12.475Z,13.56
2023-05-11T22:31:39.870Z,13.55
2023-05-11T22:34:07.362Z,13.57
2023-05-11T22:36:34.659Z,13.53
2023-05-11T22:39:02.452Z,13.51
2023-05-11T22:41:29.708Z,13.49
2023-05-11T22:43:57.086Z,13.39
2023-05-11T22:46:24.459Z,13.43
2023-05-11T22:48:51.971Z,13.39
2023-05-11T22:51:19.393Z,13.35
2023-05-11T22:53:46.746Z,13.27
2023-05-11T22:56:14.442Z,13.35
2023-05-11T22:58:41.844Z,13.32
2023-05-11T23:01:09.331Z,13.28
2023-05-11T23:03:37.080Z,13.21
2023-05-11T23:06:04.698Z,13.21
2023-05-11T23:08:32.485Z,13.17
2023-05-11T23:10:59.953Z,13.17
2023-05-11T23:13:27.791Z,13.15
2023-05-11T23:15:55.382Z,13.11
2023-05-11T23:18:22.868Z,13.10
2023-05-11T23:20:56.151Z,13.04
2023-05-11T23:23:24.297Z,13.03
2023-05-11T23:25:52.189Z,13.06
2023-05-11T23:28:20.050Z,13.05
2023-05-11T23:30:47.518Z,13.04
2023-05-11T23:33:15.340Z,13.01
2023-05-11T23:35:42.727Z,12.97
2023-05-11T23:38:10.255Z,12.96
2023-05-11T23:40:38.823Z,12.93
2023-05-11T23:43:06.317Z,12.88
2023-05-11T23:45:33.554Z,12.88
2023-05-11T23:48:01.033Z,12.86
2023-05-11T23:50:28.405Z,12.85
2023-05-11T23:52:55.681Z,12.81
2023-05-11T23:55:24.461Z,12.78
2023-05-11T23:57:51.789Z,12.76
